sensor_id;sensor_type;location;lat;lon;timestamp;P1;durP1;ratioP1;P2;durP2;ratioP2
24153;SDS011;12312;53.362;-1.518;2023-11-19T00:01:08;14.45;;;2.70;;
24153;SDS011;12312;53.362;-1.518;2023-11-19T00:03:52;17.05;;;2.92;;
24153;SDS011;12312;53.362;-1.518;2023-11-19T00:06:36;21.48;;;3.10;;
24153;SDS011;12312;53.362;-1.518;2023-11-19T00:09:21;16.65;;;2.08;;
24153;SDS011;12312;53.362;-1.518;2023-11-19T00:12:06;17.05;;;2.55;;
24153;SDS011;12312;53.362;-1.518;2023-11-19T00:14:51;13.68;;;2.63;;
24153;SDS011;12312;53.362;-1.518;2023-11-19T00:17:34;11.82;;;2.20;;
24153;SDS011;12312;53.362;-1.518;2023-11-19T00:20:18;15.30;;;2.22;;
24153;SDS011;12312;53.362;-1.518;2023-11-19T00:23:05;11.13;;;2.00;;
24153;SDS011;12312;53.362;-1.518;2023-11-19T00:25:49;19.85;;;2.42;;
24153;SDS011;12312;53.362;-1.518;2023-11-19T00:28:33;13.90;;;2.78;;
24153;SDS011;12312;53.362;-1.518;2023-11-19T00:31:17;21.25;;;2.30;;
24153;SDS011;12312;53.362;-1.518;2023-11-19T00:34:02;13.00;;;1.98;;
24153;SDS011;12312;53.362;-1.518;2023-11-19T00:36:46;11.45;;;2.17;;
24153;SDS011;12312;53.362;-1.518;2023-11-19T00:39:30;14.23;;;2.38;;
24153;SDS011;12312;53.362;-1.518;2023-11-19T00:42:14;10.32;;;2.50;;
24153;SDS011;12312;53.362;-1.518;2023-11-19T00:44:58;21.45;;;3.38;;
24153;SDS011;12312;53.362;-1.518;2023-11-19T00:47:42;25.27;;;2.50;;
24153;SDS011;12312;53.362;-1.518;2023-11-19T00:50:26;20.10;;;3.35;;
24153;SDS011;12312;53.362;-1.518;2023-11-19T00:53:10;11.02;;;1.90;;
24153;SDS011;12312;53.362;-1.518;2023-11-19T00:55:54;13.82;;;2.50;;
24153;SDS011;12312;53.362;-1.518;2023-11-19T00:58:38;17.60;;;2.25;;
24153;SDS011;12312;53.362;-1.518;2023-11-19T01:01:22;21.23;;;2.53;;
24153;SDS011;12312;53.362;-1.518;2023-11-19T01:04:06;10.80;;;2.20;;
24153;SDS011;12312;53.362;-1.518;2023-11-19T01:06:49;12.38;;;2.80;;
24153;SDS011;12312;53.362;-1.518;2023-11-19T01:09:34;9.20;;;2.38;;
24153;SDS011;12312;53.362;-1.518;2023-11-19T01:12:19;11.70;;;1.90;;
24153;SDS011;12312;53.362;-1.518;2023-11-19T01:15:03;14.27;;;2.05;;
24153;SDS011;12312;53.362;-1.518;2023-11-19T01:17:48;19.27;;;2.50;;
24153;SDS011;12312;53.362;-1.518;2023-11-19T01:20:32;14.05;;;2.40;;
24153;SDS011;12312;53.362;-1.518;2023-11-19T01:23:18;16.30;;;2.33;;
24153;SDS011;12312;53.362;-1.518;2023-11-19T01:26:02;14.23;;;3.05;;
24153;SDS011;12312;53.362;-1.518;2023-11-19T01:28:45;17.58;;;2.10;;
24153;SDS011;12312;53.362;-1.518;2023-11-19T01:31:30;15.18;;;2.05;;
24153;SDS011;12312;53.362;-1.518;2023-11-19T01:34:17;15.02;;;2.20;;
24153;SDS011;12312;53.362;-1.518;2023-11-19T01:37:01;16.35;;;2.63;;
24153;SDS011;12312;53.362;-1.518;2023-11-19T01:39:45;12.63;;;2.10;;
24153;SDS011;12312;53.362;-1.518;2023-11-19T01:42:29;18.17;;;3.10;;
24153;SDS011;12312;53.362;-1.518;2023-11-19T01:45:27;17.30;;;2.90;;
24153;SDS011;12312;53.362;-1.518;2023-11-19T01:48:12;12.27;;;1.65;;
24153;SDS011;12312;53.362;-1.518;2023-11-19T01:50:58;12.68;;;2.15;;
24153;SDS011;12312;53.362;-1.518;2023-11-19T01:53:43;18.02;;;2.67;;
24153;SDS011;12312;53.362;-1.518;2023-11-19T01:56:27;15.38;;;2.42;;
24153;SDS011;12312;53.362;-1.518;2023-11-19T01:59:11;21.25;;;2.85;;
24153;SDS011;12312;53.362;-1.518;2023-11-19T02:01:57;18.88;;;2.28;;
24153;SDS011;12312;53.362;-1.518;2023-11-19T02:04:41;16.70;;;2.20;;
24153;SDS011;12312;53.362;-1.518;2023-11-19T02:07:25;12.80;;;1.77;;
24153;SDS011;12312;53.362;-1.518;2023-11-19T02:10:10;11.40;;;1.88;;
24153;SDS011;12312;53.362;-1.518;2023-11-19T02:12:58;14.85;;;2.00;;
24153;SDS011;12312;53.362;-1.518;2023-11-19T02:15:43;19.02;;;2.45;;
24153;SDS011;12312;53.362;-1.518;2023-11-19T02:18:27;17.40;;;2.65;;
24153;SDS011;12312;53.362;-1.518;2023-11-19T02:21:11;19.67;;;2.97;;
24153;SDS011;12312;53.362;-1.518;2023-11-19T02:23:58;10.52;;;2.15;;
24153;SDS011;12312;53.362;-1.518;2023-11-19T02:29:46;14.35;;;2.85;;
24153;SDS011;12312;53.362;-1.518;2023-11-19T02:32:31;21.38;;;2.20;;
24153;SDS011;12312;53.362;-1.518;2023-11-19T02:35:15;12.93;;;2.28;;
24153;SDS011;12312;53.362;-1.518;2023-11-19T02:37:59;17.70;;;2.85;;
24153;SDS011;12312;53.362;-1.518;2023-11-19T02:40:44;15.05;;;2.30;;
24153;SDS011;12312;53.362;-1.518;2023-11-19T02:43:28;13.70;;;1.70;;
24153;SDS011;12312;53.362;-1.518;2023-11-19T02:46:12;18.75;;;2.08;;
24153;SDS011;12312;53.362;-1.518;2023-11-19T02:48:56;17.30;;;1.85;;
24153;SDS011;12312;53.362;-1.518;2023-11-19T02:51:40;15.15;;;1.52;;
24153;SDS011;12312;53.362;-1.518;2023-11-19T02:54:23;10.68;;;2.17;;
24153;SDS011;12312;53.362;-1.518;2023-11-19T02:57:10;17.27;;;2.58;;
24153;SDS011;12312;53.362;-1.518;2023-11-19T02:59:55;18.42;;;2.67;;
24153;SDS011;12312;53.362;-1.518;2023-11-19T03:02:40;10.27;;;1.55;;
24153;SDS011;12312;53.362;-1.518;2023-11-19T03:05:29;9.18;;;1.67;;
24153;SDS011;12312;53.362;-1.518;2023-11-19T03:08:17;10.00;;;1.48;;
24153;SDS011;12312;53.362;-1.518;2023-11-19T03:11:01;12.07;;;1.60;;
24153;SDS011;12312;53.362;-1.518;2023-11-19T03:13:46;13.88;;;2.50;;
24153;SDS011;12312;53.362;-1.518;2023-11-19T03:16:30;11.75;;;2.17;;
24153;SDS011;12312;53.362;-1.518;2023-11-19T03:19:14;12.15;;;2.25;;
24153;SDS011;12312;53.362;-1.518;2023-11-19T03:21:59;9.02;;;1.50;;
24153;SDS011;12312;53.362;-1.518;2023-11-19T03:24:43;12.10;;;1.42;;
24153;SDS011;12312;53.362;-1.518;2023-11-19T03:27:26;9.85;;;1.70;;
24153;SDS011;12312;53.362;-1.518;2023-11-19T03:30:10;13.48;;;1.67;;
24153;SDS011;12312;53.362;-1.518;2023-11-19T03:32:55;12.98;;;1.55;;
24153;SDS011;12312;53.362;-1.518;2023-11-19T03:35:40;12.43;;;2.03;;
24153;SDS011;12312;53.362;-1.518;2023-11-19T03:38:25;20.42;;;2.20;;
24153;SDS011;12312;53.362;-1.518;2023-11-19T03:41:15;12.02;;;1.83;;
24153;SDS011;12312;53.362;-1.518;2023-11-19T03:44:00;10.70;;;1.73;;
24153;SDS011;12312;53.362;-1.518;2023-11-19T03:46:44;11.95;;;2.22;;
24153;SDS011;12312;53.362;-1.518;2023-11-19T03:49:30;17.83;;;2.38;;
24153;SDS011;12312;53.362;-1.518;2023-11-19T03:52:13;22.05;;;3.47;;
24153;SDS011;12312;53.362;-1.518;2023-11-19T03:54:58;21.63;;;3.00;;
24153;SDS011;12312;53.362;-1.518;2023-11-19T03:57:42;9.73;;;1.60;;
24153;SDS011;12312;53.362;-1.518;2023-11-19T04:00:26;10.80;;;1.67;;
24153;SDS011;12312;53.362;-1.518;2023-11-19T04:03:11;13.77;;;1.45;;
24153;SDS011;12312;53.362;-1.518;2023-11-19T04:05:55;24.38;;;2.83;;
24153;SDS011;12312;53.362;-1.518;2023-11-19T04:08:40;8.70;;;1.38;;
24153;SDS011;12312;53.362;-1.518;2023-11-19T04:11:25;10.98;;;1.90;;
24153;SDS011;12312;53.362;-1.518;2023-11-19T04:14:09;8.60;;;2.00;;
24153;SDS011;12312;53.362;-1.518;2023-11-19T04:16:53;9.43;;;1.38;;
24153;SDS011;12312;53.362;-1.518;2023-11-19T04:19:37;10.48;;;2.58;;
24153;SDS011;12312;53.362;-1.518;2023-11-19T04:22:25;11.13;;;1.50;;
24153;SDS011;12312;53.362;-1.518;2023-11-19T04:25:09;15.55;;;2.20;;
24153;SDS011;12312;53.362;-1.518;2023-11-19T04:27:54;11.95;;;1.80;;
24153;SDS011;12312;53.362;-1.518;2023-11-19T04:30:38;12.48;;;1.52;;
24153;SDS011;12312;53.362;-1.518;2023-11-19T04:33:22;15.73;;;1.73;;
24153;SDS011;12312;53.362;-1.518;2023-11-19T04:36:06;13.55;;;1.83;;
24153;SDS011;12312;53.362;-1.518;2023-11-19T04:38:51;13.32;;;1.88;;
24153;SDS011;12312;53.362;-1.518;2023-11-19T04:41:35;13.68;;;1.75;;
24153;SDS011;12312;53.362;-1.518;2023-11-19T04:44:20;10.60;;;2.08;;
24153;SDS011;12312;53.362;-1.518;2023-11-19T04:47:04;23.75;;;2.55;;
24153;SDS011;12312;53.362;-1.518;2023-11-19T04:49:48;15.65;;;2.13;;
24153;SDS011;12312;53.362;-1.518;2023-11-19T04:52:32;12.07;;;1.63;;
24153;SDS011;12312;53.362;-1.518;2023-11-19T04:55:16;11.40;;;1.50;;
24153;SDS011;12312;53.362;-1.518;2023-11-19T04:58:01;10.75;;;1.77;;
24153;SDS011;12312;53.362;-1.518;2023-11-19T05:00:45;10.80;;;2.03;;
24153;SDS011;12312;53.362;-1.518;2023-11-19T05:03:30;9.32;;;1.67;;
24153;SDS011;12312;53.362;-1.518;2023-11-19T05:06:15;10.90;;;1.73;;
24153;SDS011;12312;53.362;-1.518;2023-11-19T05:08:59;7.65;;;1.38;;
24153;SDS011;12312;53.362;-1.518;2023-11-19T05:11:45;6.20;;;1.27;;
24153;SDS011;12312;53.362;-1.518;2023-11-19T05:14:28;4.85;;;1.23;;
24153;SDS011;12312;53.362;-1.518;2023-11-19T05:17:12;7.95;;;1.92;;
24153;SDS011;12312;53.362;-1.518;2023-11-19T05:19:56;3.00;;;0.85;;
24153;SDS011;12312;53.362;-1.518;2023-11-19T05:22:41;5.70;;;1.27;;
24153;SDS011;12312;53.362;-1.518;2023-11-19T05:25:29;8.30;;;1.15;;
24153;SDS011;12312;53.362;-1.518;2023-11-19T05:28:13;9.38;;;1.65;;
24153;SDS011;12312;53.362;-1.518;2023-11-19T05:30:58;7.47;;;1.20;;
24153;SDS011;12312;53.362;-1.518;2023-11-19T05:33:42;11.13;;;1.50;;
24153;SDS011;12312;53.362;-1.518;2023-11-19T05:36:26;8.38;;;1.25;;
24153;SDS011;12312;53.362;-1.518;2023-11-19T05:39:12;10.82;;;1.60;;
24153;SDS011;12312;53.362;-1.518;2023-11-19T05:41:56;13.23;;;1.73;;
24153;SDS011;12312;53.362;-1.518;2023-11-19T05:44:40;13.25;;;1.67;;
24153;SDS011;12312;53.362;-1.518;2023-11-19T05:47:25;13.73;;;1.70;;
24153;SDS011;12312;53.362;-1.518;2023-11-19T05:50:09;6.05;;;1.35;;
24153;SDS011;12312;53.362;-1.518;2023-11-19T05:52:54;15.95;;;1.88;;
24153;SDS011;12312;53.362;-1.518;2023-11-19T05:55:38;13.75;;;2.15;;
24153;SDS011;12312;53.362;-1.518;2023-11-19T05:58:29;10.00;;;1.70;;
24153;SDS011;12312;53.362;-1.518;2023-11-19T06:01:14;11.10;;;1.95;;
24153;SDS011;12312;53.362;-1.518;2023-11-19T06:03:59;8.63;;;1.70;;
24153;SDS011;12312;53.362;-1.518;2023-11-19T06:06:44;15.82;;;1.90;;
24153;SDS011;12312;53.362;-1.518;2023-11-19T06:09:28;8.95;;;1.55;;
24153;SDS011;12312;53.362;-1.518;2023-11-19T06:12:12;9.02;;;1.73;;
24153;SDS011;12312;53.362;-1.518;2023-11-19T06:14:58;6.32;;;1.27;;
24153;SDS011;12312;53.362;-1.518;2023-11-19T06:17:41;12.07;;;1.92;;
24153;SDS011;12312;53.362;-1.518;2023-11-19T06:20:26;18.20;;;2.10;;
24153;SDS011;12312;53.362;-1.518;2023-11-19T06:23:12;9.88;;;1.63;;
24153;SDS011;12312;53.362;-1.518;2023-11-19T06:25:56;12.13;;;1.50;;
24153;SDS011;12312;53.362;-1.518;2023-11-19T06:28:41;10.13;;;1.80;;
24153;SDS011;12312;53.362;-1.518;2023-11-19T06:31:25;7.43;;;1.77;;
24153;SDS011;12312;53.362;-1.518;2023-11-19T06:34:10;9.13;;;1.40;;
24153;SDS011;12312;53.362;-1.518;2023-11-19T06:36:54;14.07;;;2.15;;
24153;SDS011;12312;53.362;-1.518;2023-11-19T06:39:38;9.52;;;1.45;;
24153;SDS011;12312;53.362;-1.518;2023-11-19T06:42:22;8.88;;;1.45;;
24153;SDS011;12312;53.362;-1.518;2023-11-19T06:45:06;10.38;;;1.95;;
24153;SDS011;12312;53.362;-1.518;2023-11-19T06:47:50;4.05;;;1.33;;
24153;SDS011;12312;53.362;-1.518;2023-11-19T06:50:34;14.45;;;1.60;;
24153;SDS011;12312;53.362;-1.518;2023-11-19T06:53:18;8.48;;;1.73;;
24153;SDS011;12312;53.362;-1.518;2023-11-19T06:56:03;11.25;;;1.45;;
24153;SDS011;12312;53.362;-1.518;2023-11-19T06:58:50;7.97;;;1.15;;
24153;SDS011;12312;53.362;-1.518;2023-11-19T07:01:35;9.85;;;1.08;;
24153;SDS011;12312;53.362;-1.518;2023-11-19T07:04:20;7.25;;;1.23;;
24153;SDS011;12312;53.362;-1.518;2023-11-19T07:07:04;7.72;;;1.23;;
24153;SDS011;12312;53.362;-1.518;2023-11-19T07:09:49;9.68;;;1.65;;
24153;SDS011;12312;53.362;-1.518;2023-11-19T07:12:34;8.05;;;1.58;;
24153;SDS011;12312;53.362;-1.518;2023-11-19T07:15:19;14.95;;;2.30;;
24153;SDS011;12312;53.362;-1.518;2023-11-19T07:18:03;7.47;;;1.60;;
24153;SDS011;12312;53.362;-1.518;2023-11-19T07:20:47;7.60;;;1.20;;
24153;SDS011;12312;53.362;-1.518;2023-11-19T07:23:32;7.05;;;1.13;;
24153;SDS011;12312;53.362;-1.518;2023-11-19T07:26:18;6.30;;;1.40;;
24153;SDS011;12312;53.362;-1.518;2023-11-19T07:29:01;11.40;;;1.63;;
24153;SDS011;12312;53.362;-1.518;2023-11-19T07:31:45;5.20;;;0.75;;
24153;SDS011;12312;53.362;-1.518;2023-11-19T07:34:29;8.07;;;1.35;;
24153;SDS011;12312;53.362;-1.518;2023-11-19T07:37:13;16.50;;;2.22;;
24153;SDS011;12312;53.362;-1.518;2023-11-19T07:39:57;14.85;;;1.67;;
24153;SDS011;12312;53.362;-1.518;2023-11-19T07:42:41;9.38;;;1.20;;
24153;SDS011;12312;53.362;-1.518;2023-11-19T07:45:25;10.40;;;1.35;;
24153;SDS011;12312;53.362;-1.518;2023-11-19T07:48:11;5.43;;;1.42;;
24153;SDS011;12312;53.362;-1.518;2023-11-19T07:50:57;6.72;;;1.33;;
24153;SDS011;12312;53.362;-1.518;2023-11-19T07:53:41;15.32;;;1.60;;
24153;SDS011;12312;53.362;-1.518;2023-11-19T07:56:25;9.35;;;1.30;;
24153;SDS011;12312;53.362;-1.518;2023-11-19T07:59:09;6.18;;;1.70;;
24153;SDS011;12312;53.362;-1.518;2023-11-19T08:01:53;9.32;;;1.65;;
24153;SDS011;12312;53.362;-1.518;2023-11-19T08:04:37;14.65;;;1.80;;
24153;SDS011;12312;53.362;-1.518;2023-11-19T08:07:23;11.68;;;1.88;;
24153;SDS011;12312;53.362;-1.518;2023-11-19T08:10:07;17.42;;;2.00;;
24153;SDS011;12312;53.362;-1.518;2023-11-19T08:12:55;8.27;;;1.50;;
24153;SDS011;12312;53.362;-1.518;2023-11-19T08:15:38;9.27;;;1.27;;
24153;SDS011;12312;53.362;-1.518;2023-11-19T08:18:24;8.52;;;1.30;;
24153;SDS011;12312;53.362;-1.518;2023-11-19T08:21:08;7.80;;;1.33;;
24153;SDS011;12312;53.362;-1.518;2023-11-19T08:23:52;9.00;;;1.20;;
24153;SDS011;12312;53.362;-1.518;2023-11-19T08:26:36;5.97;;;1.17;;
24153;SDS011;12312;53.362;-1.518;2023-11-19T08:29:20;13.45;;;1.88;;
24153;SDS011;12312;53.362;-1.518;2023-11-19T08:32:05;17.33;;;2.22;;
24153;SDS011;12312;53.362;-1.518;2023-11-19T08:34:49;15.35;;;1.75;;
24153;SDS011;12312;53.362;-1.518;2023-11-19T08:37:34;14.02;;;2.45;;
24153;SDS011;12312;53.362;-1.518;2023-11-19T08:40:20;7.47;;;1.58;;
24153;SDS011;12312;53.362;-1.518;2023-11-19T08:43:04;12.93;;;2.08;;
24153;SDS011;12312;53.362;-1.518;2023-11-19T08:45:48;4.60;;;0.80;;
24153;SDS011;12312;53.362;-1.518;2023-11-19T08:48:32;9.35;;;1.50;;
24153;SDS011;12312;53.362;-1.518;2023-11-19T08:51:16;6.07;;;1.55;;
24153;SDS011;12312;53.362;-1.518;2023-11-19T08:53:59;9.38;;;1.38;;
24153;SDS011;12312;53.362;-1.518;2023-11-19T08:56:43;5.75;;;1.00;;
24153;SDS011;12312;53.362;-1.518;2023-11-19T08:59:27;12.93;;;1.58;;
24153;SDS011;12312;53.362;-1.518;2023-11-19T09:02:11;9.55;;;1.60;;
24153;SDS011;12312;53.362;-1.518;2023-11-19T09:04:55;7.63;;;1.73;;
24153;SDS011;12312;53.362;-1.518;2023-11-19T09:07:39;10.63;;;1.83;;
24153;SDS011;12312;53.362;-1.518;2023-11-19T09:10:23;15.32;;;1.63;;
24153;SDS011;12312;53.362;-1.518;2023-11-19T09:13:07;9.60;;;1.70;;
24153;SDS011;12312;53.362;-1.518;2023-11-19T09:15:51;9.82;;;1.92;;
24153;SDS011;12312;53.362;-1.518;2023-11-19T09:18:35;12.27;;;1.80;;
24153;SDS011;12312;53.362;-1.518;2023-11-19T09:21:19;7.38;;;1.52;;
24153;SDS011;12312;53.362;-1.518;2023-11-19T09:24:04;15.80;;;1.85;;
24153;SDS011;12312;53.362;-1.518;2023-11-19T09:26:48;6.28;;;1.13;;
24153;SDS011;12312;53.362;-1.518;2023-11-19T09:29:32;4.40;;;0.95;;
24153;SDS011;12312;53.362;-1.518;2023-11-19T09:32:16;6.45;;;1.27;;
24153;SDS011;12312;53.362;-1.518;2023-11-19T09:35:00;16.52;;;1.65;;
24153;SDS011;12312;53.362;-1.518;2023-11-19T09:37:46;7.63;;;1.10;;
24153;SDS011;12312;53.362;-1.518;2023-11-19T09:40:30;9.50;;;1.35;;
24153;SDS011;12312;53.362;-1.518;2023-11-19T09:43:15;3.78;;;1.65;;
24153;SDS011;12312;53.362;-1.518;2023-11-19T09:45:59;9.23;;;1.35;;
24153;SDS011;12312;53.362;-1.518;2023-11-19T09:48:51;7.55;;;1.75;;
24153;SDS011;12312;53.362;-1.518;2023-11-19T09:51:38;9.50;;;1.33;;
24153;SDS011;12312;53.362;-1.518;2023-11-19T09:54:22;6.13;;;0.77;;
24153;SDS011;12312;53.362;-1.518;2023-11-19T09:57:07;6.07;;;1.30;;
24153;SDS011;12312;53.362;-1.518;2023-11-19T09:59:53;6.80;;;1.20;;
24153;SDS011;12312;53.362;-1.518;2023-11-19T10:02:37;7.70;;;1.38;;
24153;SDS011;12312;53.362;-1.518;2023-11-19T10:05:23;7.35;;;1.23;;
24153;SDS011;12312;53.362;-1.518;2023-11-19T10:08:07;5.63;;;0.95;;
24153;SDS011;12312;53.362;-1.518;2023-11-19T10:10:51;3.58;;;0.60;;
24153;SDS011;12312;53.362;-1.518;2023-11-19T10:13:35;3.92;;;0.90;;
24153;SDS011;12312;53.362;-1.518;2023-11-19T10:16:27;7.10;;;1.05;;
24153;SDS011;12312;53.362;-1.518;2023-11-19T10:19:18;2.58;;;0.70;;
24153;SDS011;12312;53.362;-1.518;2023-11-19T10:22:07;8.68;;;0.90;;
24153;SDS011;12312;53.362;-1.518;2023-11-19T10:24:51;6.22;;;0.90;;
24153;SDS011;12312;53.362;-1.518;2023-11-19T10:27:36;2.58;;;0.68;;
24153;SDS011;12312;53.362;-1.518;2023-11-19T10:30:20;4.90;;;1.30;;
24153;SDS011;12312;53.362;-1.518;2023-11-19T10:35:54;4.75;;;0.82;;
24153;SDS011;12312;53.362;-1.518;2023-11-19T10:38:40;2.67;;;0.52;;
24153;SDS011;12312;53.362;-1.518;2023-11-19T10:41:34;10.95;;;2.97;;
24153;SDS011;12312;53.362;-1.518;2023-11-19T10:44:34;11.90;;;3.42;;
24153;SDS011;12312;53.362;-1.518;2023-11-19T10:47:19;6.75;;;0.90;;
24153;SDS011;12312;53.362;-1.518;2023-11-19T10:50:04;4.50;;;0.90;;
24153;SDS011;12312;53.362;-1.518;2023-11-19T10:52:50;1.40;;;0.50;;
24153;SDS011;12312;53.362;-1.518;2023-11-19T10:55:39;7.10;;;1.70;;
24153;SDS011;12312;53.362;-1.518;2023-11-19T10:58:23;8.32;;;1.70;;
24153;SDS011;12312;53.362;-1.518;2023-11-19T11:01:21;7.50;;;2.00;;
24153;SDS011;12312;53.362;-1.518;2023-11-19T11:04:15;6.70;;;1.67;;
24153;SDS011;12312;53.362;-1.518;2023-11-19T11:07:06;7.07;;;1.73;;
24153;SDS011;12312;53.362;-1.518;2023-11-19T11:09:52;4.40;;;0.90;;
24153;SDS011;12312;53.362;-1.518;2023-11-19T11:12:37;2.42;;;0.93;;
24153;SDS011;12312;53.362;-1.518;2023-11-19T11:15:23;2.42;;;1.02;;
24153;SDS011;12312;53.362;-1.518;2023-11-19T11:18:10;5.13;;;1.02;;
24153;SDS011;12312;53.362;-1.518;2023-11-19T11:21:14;2.92;;;1.23;;
24153;SDS011;12312;53.362;-1.518;2023-11-19T11:30:46;3.33;;;0.60;;
24153;SDS011;12312;53.362;-1.518;2023-11-19T11:36:24;5.88;;;0.75;;
24153;SDS011;12312;53.362;-1.518;2023-11-19T11:39:09;2.42;;;0.45;;
24153;SDS011;12312;53.362;-1.518;2023-11-19T11:45:13;1.48;;;0.60;;
24153;SDS011;12312;53.362;-1.518;2023-11-19T11:50:50;6.85;;;0.88;;
24153;SDS011;12312;53.362;-1.518;2023-11-19T11:53:38;3.90;;;0.47;;
24153;SDS011;12312;53.362;-1.518;2023-11-19T11:56:21;0.52;;;0.40;;
24153;SDS011;12312;53.362;-1.518;2023-11-19T11:59:18;2.38;;;0.50;;
24153;SDS011;12312;53.362;-1.518;2023-11-19T12:02:03;2.15;;;0.60;;
24153;SDS011;12312;53.362;-1.518;2023-11-19T12:04:51;2.88;;;0.50;;
24153;SDS011;12312;53.362;-1.518;2023-11-19T12:07:36;1.65;;;0.45;;
24153;SDS011;12312;53.362;-1.518;2023-11-19T12:10:22;1.80;;;0.70;;
24153;SDS011;12312;53.362;-1.518;2023-11-19T12:13:08;5.32;;;0.70;;
24153;SDS011;12312;53.362;-1.518;2023-11-19T12:18:40;7.05;;;0.75;;
24153;SDS011;12312;53.362;-1.518;2023-11-19T12:21:28;1.93;;;0.57;;
24153;SDS011;12312;53.362;-1.518;2023-11-19T12:24:13;0.45;;;0.45;;
24153;SDS011;12312;53.362;-1.518;2023-11-19T12:26:58;1.42;;;0.77;;
24153;SDS011;12312;53.362;-1.518;2023-11-19T12:29:42;2.53;;;0.60;;
24153;SDS011;12312;53.362;-1.518;2023-11-19T12:32:36;2.05;;;0.77;;
24153;SDS011;12312;53.362;-1.518;2023-11-19T12:35:27;7.75;;;0.80;;
24153;SDS011;12312;53.362;-1.518;2023-11-19T12:38:21;0.75;;;0.60;;
24153;SDS011;12312;53.362;-1.518;2023-11-19T12:41:06;0.90;;;0.60;;
24153;SDS011;12312;53.362;-1.518;2023-11-19T12:43:52;0.95;;;0.75;;
24153;SDS011;12312;53.362;-1.518;2023-11-19T12:46:36;0.65;;;0.52;;
24153;SDS011;12312;53.362;-1.518;2023-11-19T12:49:20;0.57;;;0.45;;
24153;SDS011;12312;53.362;-1.518;2023-11-19T12:52:11;1.05;;;0.50;;
24153;SDS011;12312;53.362;-1.518;2023-11-19T12:54:56;0.40;;;0.40;;
24153;SDS011;12312;53.362;-1.518;2023-11-19T12:57:41;1.75;;;0.40;;
24153;SDS011;12312;53.362;-1.518;2023-11-19T13:00:26;0.50;;;0.50;;
24153;SDS011;12312;53.362;-1.518;2023-11-19T13:03:11;0.52;;;0.40;;
24153;SDS011;12312;53.362;-1.518;2023-11-19T13:06:00;0.40;;;0.40;;
24153;SDS011;12312;53.362;-1.518;2023-11-19T13:08:49;0.82;;;0.35;;
24153;SDS011;12312;53.362;-1.518;2023-11-19T13:11:36;2.05;;;0.57;;
24153;SDS011;12312;53.362;-1.518;2023-11-19T13:14:21;1.13;;;0.52;;
24153;SDS011;12312;53.362;-1.518;2023-11-19T13:17:07;3.05;;;0.77;;
24153;SDS011;12312;53.362;-1.518;2023-11-19T13:19:51;0.88;;;0.50;;
24153;SDS011;12312;53.362;-1.518;2023-11-19T13:22:36;2.20;;;0.55;;
24153;SDS011;12312;53.362;-1.518;2023-11-19T13:25:20;0.60;;;0.60;;
24153;SDS011;12312;53.362;-1.518;2023-11-19T13:28:04;1.35;;;0.80;;
24153;SDS011;12312;53.362;-1.518;2023-11-19T13:30:50;0.40;;;0.40;;
24153;SDS011;12312;53.362;-1.518;2023-11-19T13:33:34;2.55;;;0.68;;
24153;SDS011;12312;53.362;-1.518;2023-11-19T13:36:19;0.73;;;0.60;;
24153;SDS011;12312;53.362;-1.518;2023-11-19T13:39:03;1.05;;;0.52;;
24153;SDS011;12312;53.362;-1.518;2023-11-19T13:41:47;1.80;;;0.63;;
24153;SDS011;12312;53.362;-1.518;2023-11-19T13:44:32;1.70;;;0.70;;
24153;SDS011;12312;53.362;-1.518;2023-11-19T13:47:16;2.80;;;0.70;;
24153;SDS011;12312;53.362;-1.518;2023-11-19T13:50:00;1.27;;;0.63;;
24153;SDS011;12312;53.362;-1.518;2023-11-19T13:52:44;2.33;;;0.50;;
24153;SDS011;12312;53.362;-1.518;2023-11-19T13:55:31;0.82;;;0.50;;
24153;SDS011;12312;53.362;-1.518;2023-11-19T13:58:15;1.25;;;0.73;;
24153;SDS011;12312;53.362;-1.518;2023-11-19T14:00:59;1.30;;;0.50;;
24153;SDS011;12312;53.362;-1.518;2023-11-19T14:03:43;1.10;;;0.65;;
24153;SDS011;12312;53.362;-1.518;2023-11-19T14:06:27;1.10;;;0.70;;
24153;SDS011;12312;53.362;-1.518;2023-11-19T14:09:11;3.28;;;1.02;;
24153;SDS011;12312;53.362;-1.518;2023-11-19T14:11:56;1.40;;;0.90;;
24153;SDS011;12312;53.362;-1.518;2023-11-19T14:14:40;2.13;;;0.80;;
24153;SDS011;12312;53.362;-1.518;2023-11-19T14:17:26;1.00;;;0.52;;
24153;SDS011;12312;53.362;-1.518;2023-11-19T14:20:10;0.73;;;0.50;;
24153;SDS011;12312;53.362;-1.518;2023-11-19T14:22:57;0.80;;;0.40;;
24153;SDS011;12312;53.362;-1.518;2023-11-19T14:25:41;1.00;;;0.40;;
24153;SDS011;12312;53.362;-1.518;2023-11-19T14:28:27;0.45;;;0.40;;
24153;SDS011;12312;53.362;-1.518;2023-11-19T14:31:11;0.28;;;0.28;;
24153;SDS011;12312;53.362;-1.518;2023-11-19T14:33:55;0.20;;;0.20;;
24153;SDS011;12312;53.362;-1.518;2023-11-19T14:36:38;3.13;;;0.52;;
24153;SDS011;12312;53.362;-1.518;2023-11-19T14:39:22;0.25;;;0.25;;
24153;SDS011;12312;53.362;-1.518;2023-11-19T14:42:06;2.70;;;0.43;;
24153;SDS011;12312;53.362;-1.518;2023-11-19T14:44:52;0.40;;;0.30;;
24153;SDS011;12312;53.362;-1.518;2023-11-19T14:47:37;0.60;;;0.40;;
24153;SDS011;12312;53.362;-1.518;2023-11-19T14:50:21;0.70;;;0.40;;
24153;SDS011;12312;53.362;-1.518;2023-11-19T14:53:04;0.60;;;0.60;;
24153;SDS011;12312;53.362;-1.518;2023-11-19T14:55:48;0.65;;;0.32;;
24153;SDS011;12312;53.362;-1.518;2023-11-19T14:58:32;1.00;;;0.38;;
24153;SDS011;12312;53.362;-1.518;2023-11-19T15:01:16;0.82;;;0.40;;
24153;SDS011;12312;53.362;-1.518;2023-11-19T15:04:01;1.35;;;0.40;;
24153;SDS011;12312;53.362;-1.518;2023-11-19T15:06:45;1.65;;;0.38;;
24153;SDS011;12312;53.362;-1.518;2023-11-19T15:09:28;1.00;;;0.32;;
24153;SDS011;12312;53.362;-1.518;2023-11-19T15:12:12;1.95;;;0.30;;
24153;SDS011;12312;53.362;-1.518;2023-11-19T15:14:57;0.57;;;0.40;;
24153;SDS011;12312;53.362;-1.518;2023-11-19T15:17:41;1.33;;;0.47;;
24153;SDS011;12312;53.362;-1.518;2023-11-19T15:20:25;0.82;;;0.40;;
24153;SDS011;12312;53.362;-1.518;2023-11-19T15:23:13;1.15;;;0.52;;
24153;SDS011;12312;53.362;-1.518;2023-11-19T15:25:58;5.25;;;0.85;;
24153;SDS011;12312;53.362;-1.518;2023-11-19T15:28:42;3.03;;;0.70;;
24153;SDS011;12312;53.362;-1.518;2023-11-19T15:31:26;2.72;;;0.70;;
24153;SDS011;12312;53.362;-1.518;2023-11-19T15:34:10;1.58;;;0.40;;
24153;SDS011;12312;53.362;-1.518;2023-11-19T15:36:54;0.73;;;0.50;;
24153;SDS011;12312;53.362;-1.518;2023-11-19T15:39:38;0.32;;;0.28;;
24153;SDS011;12312;53.362;-1.518;2023-11-19T15:42:22;0.40;;;0.40;;
24153;SDS011;12312;53.362;-1.518;2023-11-19T15:45:06;0.57;;;0.55;;
24153;SDS011;12312;53.362;-1.518;2023-11-19T15:47:51;1.77;;;0.35;;
24153;SDS011;12312;53.362;-1.518;2023-11-19T15:50:35;0.82;;;0.45;;
24153;SDS011;12312;53.362;-1.518;2023-11-19T15:53:19;1.58;;;0.57;;
24153;SDS011;12312;53.362;-1.518;2023-11-19T15:56:04;0.40;;;0.30;;
24153;SDS011;12312;53.362;-1.518;2023-11-19T15:58:48;0.38;;;0.38;;
24153;SDS011;12312;53.362;-1.518;2023-11-19T16:01:32;0.52;;;0.32;;
24153;SDS011;12312;53.362;-1.518;2023-11-19T16:04:16;1.33;;;0.50;;
24153;SDS011;12312;53.362;-1.518;2023-11-19T16:07:00;0.40;;;0.40;;
24153;SDS011;12312;53.362;-1.518;2023-11-19T16:09:44;0.93;;;0.55;;
24153;SDS011;12312;53.362;-1.518;2023-11-19T16:12:29;1.20;;;0.52;;
24153;SDS011;12312;53.362;-1.518;2023-11-19T16:15:13;1.52;;;0.40;;
24153;SDS011;12312;53.362;-1.518;2023-11-19T16:17:58;0.50;;;0.50;;
24153;SDS011;12312;53.362;-1.518;2023-11-19T16:20:42;0.90;;;0.50;;
24153;SDS011;12312;53.362;-1.518;2023-11-19T16:23:26;0.82;;;0.60;;
24153;SDS011;12312;53.362;-1.518;2023-11-19T16:26:11;2.35;;;1.23;;
24153;SDS011;12312;53.362;-1.518;2023-11-19T16:28:55;2.65;;;1.55;;
24153;SDS011;12312;53.362;-1.518;2023-11-19T16:31:40;3.13;;;1.90;;
24153;SDS011;12312;53.362;-1.518;2023-11-19T16:34:26;3.65;;;2.10;;
24153;SDS011;12312;53.362;-1.518;2023-11-19T16:37:10;2.92;;;2.10;;